Time;durP1;ratioP1;P1;durP2;ratioP2;P2;SDS_P1;SDS_P2;PMS_P1;PMS_P2;Temp;Humidity;BMP_temperature;BMP_pressure;BME280_temperature;BME280_humidity;BME280_pressure;Samples;Min_cycle;Max_cycle;Signal;HPM_P1;HPM_P2
2022/05/03 00:02:36;;;;;;;12.27;11.07;;;;;;;;;;5018963;28;20191;-78
2022/05/03 00:05:07;;;;;;;14.13;12.70;;;;;;;;;;5009775;28;20274;-78
2022/05/03 00:07:33;;;;;;;14.33;11.73;;;;;;;;;;5006970;28;21122;-78
2022/05/03 00:10:16;;;;;;;12.47;11.23;;;;;;;;;;5010960;28;20215;-78
2022/05/03 00:12:51;;;;;;;12.53;11.33;;;;;;;;;;5010302;28;20622;-79
2022/05/03 00:15:18;;;;;;;13.73;12.33;;;;;;;;;;5006511;28;20265;-78
2022/05/03 00:17:46;;;;;;;14.47;13.17;;;;;;;;;;5003966;28;20177;-77
2022/05/03 00:20:12;;;;;;;13.70;12.40;;;;;;;;;;5008918;28;20211;-78
2022/05/03 00:22:38;;;;;;;14.43;12.37;;;;;;;;;;5011834;28;20276;-78
2022/05/03 00:25:05;;;;;;;13.63;12.23;;;;;;;;;;5010504;28;20192;-78
2022/05/03 00:27:31;;;;;;;12.60;11.27;;;;;;;;;;5012340;28;20210;-78
2022/05/03 00:29:58;;;;;;;13.80;12.27;;;;;;;;;;5007760;28;20218;-78
2022/05/03 00:32:26;;;;;;;13.23;11.90;;;;;;;;;;5007816;28;20277;-78
2022/05/03 00:34:53;;;;;;;13.37;12.03;;;;;;;;;;5011688;28;20214;-78
2022/05/03 00:37:28;;;;;;;11.83;10.67;;;;;;;;;;5009176;28;20821;-78
2022/05/03 00:39:55;;;;;;;11.33;10.23;;;;;;;;;;5006360;28;20659;-78
2022/05/03 00:42:26;;;;;;;12.57;11.30;;;;;;;;;;5007007;28;20190;-78
2022/05/03 00:44:59;;;;;;;11.67;10.50;;;;;;;;;;4998325;28;20234;-78
2022/05/03 00:47:42;;;;;;;14.03;10.90;;;;;;;;;;5026784;28;20656;-78
2022/05/03 00:50:09;;;;;;;11.60;10.50;;;;;;;;;;5000150;28;20203;-78
2022/05/03 00:52:46;;;;;;;11.97;9.20;;;;;;;;;;5009921;28;20183;-78
2022/05/03 00:55:31;;;;;;;9.43;8.43;;;;;;;;;;5003847;28;20662;-78
2022/05/03 00:58:15;;;;;;;9.20;8.40;;;;;;;;;;5006071;28;20186;-78
2022/05/03 01:00:56;;;;;;;8.43;7.63;;;;;;;;;;5003220;28;20321;-78
2022/05/03 01:03:27;;;;;;;11.10;10.10;;;;;;;;;;5002442;28;20241;-78
2022/05/03 01:06:15;;;;;;;11.47;8.67;;;;;;;;;;5005742;28;20183;-78
2022/05/03 01:08:47;;;;;;;8.20;7.40;;;;;;;;;;5016108;28;20591;-79
2022/05/03 01:11:34;;;;;;;8.77;7.93;;;;;;;;;;5011229;28;20679;-79
2022/05/03 01:14:19;;;;;;;8.10;7.30;;;;;;;;;;5009952;28;20719;-78
2022/05/03 01:17:10;;;;;;;10.23;9.33;;;;;;;;;;5010111;28;20270;-78
2022/05/03 01:19:55;;;;;;;11.63;10.17;;;;;;;;;;5009646;28;20725;-78
2022/05/03 01:22:40;;;;;;;11.33;10.23;;;;;;;;;;5006225;28;20195;-78
2022/05/03 01:25:13;;;;;;;12.00;10.20;;;;;;;;;;5004439;28;20681;-78
2022/05/03 01:27:49;;;;;;;12.03;10.60;;;;;;;;;;5006652;28;20590;-79
2022/05/03 01:30:16;;;;;;;11.30;10.30;;;;;;;;;;4984788;28;20280;-79
2022/05/03 01:32:45;;;;;;;11.97;10.77;;;;;;;;;;5008721;28;20981;-79
2022/05/03 01:35:15;;;;;;;12.83;11.57;;;;;;;;;;5005340;28;20581;-78
2022/05/03 01:37:55;;;;;;;13.63;12.37;;;;;;;;;;4997048;28;20246;-78
2022/05/03 01:40:32;;;;;;;13.20;12.00;;;;;;;;;;5004127;28;20215;-79
2022/05/03 01:43:11;;;;;;;14.07;12.67;;;;;;;;;;5008168;28;20183;-78
2022/05/03 01:45:56;;;;;;;14.60;13.30;;;;;;;;;;4998523;28;20187;-78
2022/05/03 01:48:22;;;;;;;13.17;11.87;;;;;;;;;;5007096;28;20239;-78
2022/05/03 01:51:21;;;;;;;13.63;12.43;;;;;;;;;;5001684;28;20291;-78
2022/05/03 01:53:50;;;;;;;14.73;13.33;;;;;;;;;;4972598;28;20333;-77
2022/05/03 01:56:26;;;;;;;13.83;12.50;;;;;;;;;;4990426;28;20721;-78
2022/05/03 01:59:09;;;;;;;15.90;14.23;;;;;;;;;;5005824;28;20206;-77
2022/05/03 02:01:41;;;;;;;14.53;13.23;;;;;;;;;;5004487;28;20180;-78
2022/05/03 02:04:19;;;;;;;16.83;15.27;;;;;;;;;;5014333;28;20245;-78
2022/05/03 02:06:45;;;;;;;15.20;13.70;;;;;;;;;;5007451;28;20186;-78
2022/05/03 02:09:12;;;;;;;14.60;13.20;;;;;;;;;;5013532;28;20265;-78
2022/05/03 02:11:46;;;;;;;13.43;12.23;;;;;;;;;;5012636;28;20277;-78
2022/05/03 02:17:13;;;;;;;15.67;14.10;;;;;;;;;;5007383;28;20184;-78
2022/05/03 02:20:01;;;;;;;15.73;14.33;;;;;;;;;;5011456;28;20702;-78
2022/05/03 02:22:33;;;;;;;13.83;12.53;;;;;;;;;;5010416;28;22172;-78
2022/05/03 02:25:00;;;;;;;16.47;14.97;;;;;;;;;;5012720;28;20187;-78
2022/05/03 02:27:26;;;;;;;16.30;14.20;;;;;;;;;;5013493;28;20434;-78
2022/05/03 02:29:53;;;;;;;15.03;13.70;;;;;;;;;;4976046;28;20274;-78
2022/05/03 02:32:50;;;;;;;15.47;14.00;;;;;;;;;;5012343;28;20187;-77
2022/05/03 02:35:20;;;;;;;16.83;15.23;;;;;;;;;;5006234;28;20199;-78
2022/05/03 02:37:51;;;;;;;14.93;13.43;;;;;;;;;;5013394;28;20196;-78
2022/05/03 02:40:19;;;;;;;13.70;12.33;;;;;;;;;;5011455;28;20317;-78
2022/05/03 02:42:46;;;;;;;15.07;13.53;;;;;;;;;;5008580;28;20196;-78
2022/05/03 02:45:13;;;;;;;14.77;13.43;;;;;;;;;;5011252;28;20226;-78
2022/05/03 02:47:42;;;;;;;15.23;13.60;;;;;;;;;;5007817;28;20179;-78
2022/05/03 02:50:27;;;;;;;15.07;13.47;;;;;;;;;;5011032;28;20298;-78
2022/05/03 02:53:01;;;;;;;15.50;13.97;;;;;;;;;;5001087;28;20194;-78
2022/05/03 02:55:28;;;;;;;16.33;14.77;;;;;;;;;;5025337;28;20179;-77
2022/05/03 02:58:00;;;;;;;15.57;14.17;;;;;;;;;;5008781;28;20588;-77
2022/05/03 03:03:36;;;;;;;17.07;15.47;;;;;;;;;;5027264;28;20183;-77
2022/05/03 03:06:05;;;;;;;17.60;16.00;;;;;;;;;;5010398;28;20662;-78
2022/05/03 03:08:38;;;;;;;17.10;15.30;;;;;;;;;;5010766;28;20230;-78
2022/05/03 03:11:05;;;;;;;16.77;15.07;;;;;;;;;;5011885;28;20265;-78
2022/05/03 03:13:37;;;;;;;16.40;14.80;;;;;;;;;;5011968;28;20234;-78
2022/05/03 03:16:04;;;;;;;18.03;16.33;;;;;;;;;;5011228;28;20652;-78
2022/05/03 03:18:33;;;;;;;18.90;17.00;;;;;;;;;;5011973;28;20207;-78
2022/05/03 03:21:00;;;;;;;18.33;16.53;;;;;;;;;;5013199;28;20187;-78
2022/05/03 03:23:30;;;;;;;17.67;16.07;;;;;;;;;;4996102;28;20218;-78
2022/05/03 03:25:58;;;;;;;16.47;14.87;;;;;;;;;;5011036;28;20187;-78
2022/05/03 03:28:24;;;;;;;17.03;15.50;;;;;;;;;;5009843;28;20631;-78
2022/05/03 03:30:51;;;;;;;17.13;15.30;;;;;;;;;;5002219;28;20303;-78
2022/05/03 03:33:20;;;;;;;17.80;16.10;;;;;;;;;;5011904;28;20182;-78
2022/05/03 03:35:48;;;;;;;14.97;13.57;;;;;;;;;;5010611;28;20198;-78
2022/05/03 03:38:14;;;;;;;17.40;15.57;;;;;;;;;;5010030;28;20190;-78
2022/05/03 03:40:40;;;;;;;16.50;14.80;;;;;;;;;;5008914;28;20215;-78
2022/05/03 03:43:07;;;;;;;15.80;14.20;;;;;;;;;;5009366;28;20214;-78
2022/05/03 03:45:33;;;;;;;13.53;12.27;;;;;;;;;;5007689;28;20184;-77
2022/05/03 03:48:00;;;;;;;15.13;13.73;;;;;;;;;;5010731;28;20499;-78
2022/05/03 03:50:27;;;;;;;14.10;12.60;;;;;;;;;;5001869;28;20210;-77
2022/05/03 03:52:53;;;;;;;14.33;12.83;;;;;;;;;;5003451;28;20187;-77
2022/05/03 03:55:20;;;;;;;13.63;12.30;;;;;;;;;;5009307;28;20190;-78
2022/05/03 03:57:46;;;;;;;14.80;13.40;;;;;;;;;;4978063;28;20179;-78
2022/05/03 04:00:16;;;;;;;13.17;11.90;;;;;;;;;;5008438;28;20207;-78
2022/05/03 04:02:43;;;;;;;12.70;11.50;;;;;;;;;;5010712;28;20195;-77
2022/05/03 04:05:27;;;;;;;13.03;11.73;;;;;;;;;;5010090;28;20226;-77
2022/05/03 04:07:54;;;;;;;13.03;11.63;;;;;;;;;;5012069;28;20190;-77
2022/05/03 04:10:21;;;;;;;14.93;13.53;;;;;;;;;;5008340;28;20221;-78
2022/05/03 04:12:47;;;;;;;15.13;13.67;;;;;;;;;;5011392;28;20781;-78
2022/05/03 04:15:13;;;;;;;14.47;13.17;;;;;;;;;;5009338;28;20187;-78
2022/05/03 04:17:40;;;;;;;15.30;13.80;;;;;;;;;;5011762;28;20171;-78
2022/05/03 04:20:06;;;;;;;15.10;13.70;;;;;;;;;;5011157;28;20203;-78
2022/05/03 04:22:34;;;;;;;15.30;13.40;;;;;;;;;;5022670;28;20269;-77
2022/05/03 04:25:01;;;;;;;14.07;12.67;;;;;;;;;;5009795;28;20630;-78
2022/05/03 04:27:27;;;;;;;14.93;13.47;;;;;;;;;;5003884;28;20729;-78
2022/05/03 04:29:53;;;;;;;15.83;14.33;;;;;;;;;;5006290;28;21001;-78
2022/05/03 04:32:20;;;;;;;15.90;14.30;;;;;;;;;;5010039;28;20242;-78
2022/05/03 04:34:46;;;;;;;16.10;14.53;;;;;;;;;;5009884;28;20827;-78
2022/05/03 04:37:13;;;;;;;14.60;13.30;;;;;;;;;;5010235;28;20275;-79
2022/05/03 04:39:40;;;;;;;16.60;14.50;;;;;;;;;;5009301;28;20207;-78
2022/05/03 04:42:06;;;;;;;15.60;14.00;;;;;;;;;;5007886;28;20245;-78
2022/05/03 04:44:33;;;;;;;15.10;13.60;;;;;;;;;;5005180;28;20308;-78
2022/05/03 04:46:59;;;;;;;16.20;14.57;;;;;;;;;;4990515;28;20613;-78
2022/05/03 04:49:26;;;;;;;13.83;12.43;;;;;;;;;;5008865;28;20207;-78
2022/05/03 04:51:52;;;;;;;14.80;13.40;;;;;;;;;;5007729;28;20195;-78
2022/05/03 04:54:18;;;;;;;13.43;12.23;;;;;;;;;;5009901;28;20273;-78
2022/05/03 04:56:46;;;;;;;14.27;12.97;;;;;;;;;;5002405;28;20369;-78
2022/05/03 04:59:36;;;;;;;13.37;12.17;;;;;;;;;;4997653;28;20211;-78
2022/05/03 05:02:02;;;;;;;13.70;12.40;;;;;;;;;;5006040;28;20187;-79
2022/05/03 05:04:29;;;;;;;13.70;12.30;;;;;;;;;;5012840;28;20187;-78
2022/05/03 05:06:56;;;;;;;15.60;14.17;;;;;;;;;;5007665;28;20324;-79
2022/05/03 05:09:22;;;;;;;16.60;15.07;;;;;;;;;;5007981;28;20272;-79
2022/05/03 05:11:49;;;;;;;15.57;14.07;;;;;;;;;;5009751;28;20717;-79
2022/05/03 05:14:19;;;;;;;17.67;16.07;;;;;;;;;;5007191;28;20187;-79
2022/05/03 05:16:46;;;;;;;17.37;15.63;;;;;;;;;;5006724;28;20184;-79
2022/05/03 05:19:12;;;;;;;17.17;15.47;;;;;;;;;;5004817;28;20203;-79
2022/05/03 05:21:39;;;;;;;17.17;15.47;;;;;;;;;;5009146;28;20183;-79
2022/05/03 05:24:10;;;;;;;16.50;14.87;;;;;;;;;;5007956;28;20187;-79
2022/05/03 05:27:08;;;;;;;14.90;13.50;;;;;;;;;;4987470;28;20206;-79
2022/05/03 05:29:35;;;;;;;14.70;13.30;;;;;;;;;;5013385;28;20218;-79
2022/05/03 05:32:01;;;;;;;14.90;13.50;;;;;;;;;;5010381;28;20179;-78
2022/05/03 05:34:27;;;;;;;16.47;13.63;;;;;;;;;;4990912;28;20190;-80
2022/05/03 05:36:53;;;;;;;15.90;13.40;;;;;;;;;;5008377;28;20265;-80
2022/05/03 05:39:20;;;;;;;23.63;13.97;;;;;;;;;;5015029;28;20199;-80
2022/05/03 05:41:53;;;;;;;22.80;14.33;;;;;;;;;;5013071;28;20194;-79
2022/05/03 05:44:19;;;;;;;15.43;13.63;;;;;;;;;;5014246;28;20222;-78
2022/05/03 05:46:45;;;;;;;19.93;13.97;;;;;;;;;;5012015;28;20670;-78
2022/05/03 05:49:12;;;;;;;16.83;13.50;;;;;;;;;;5016516;28;20211;-78
2022/05/03 05:51:38;;;;;;;17.83;12.60;;;;;;;;;;5009305;28;20187;-78
2022/05/03 05:54:04;;;;;;;20.03;13.90;;;;;;;;;;5013600;28;20179;-78
2022/05/03 05:56:31;;;;;;;14.93;13.33;;;;;;;;;;5015742;28;20187;-82
2022/05/03 05:58:57;;;;;;;14.20;12.87;;;;;;;;;;4995720;28;20687;-79
2022/05/03 06:01:26;;;;;;;21.80;13.33;;;;;;;;;;5009283;28;20278;-78
2022/05/03 06:03:53;;;;;;;22.00;13.97;;;;;;;;;;5003498;28;20188;-79
2022/05/03 06:06:36;;;;;;;16.80;12.63;;;;;;;;;;5011184;28;20191;-79
2022/05/03 06:09:03;;;;;;;15.83;12.80;;;;;;;;;;5012772;28;21050;-78
2022/05/03 06:11:29;;;;;;;15.43;12.60;;;;;;;;;;5013085;28;20801;-78
2022/05/03 06:13:55;;;;;;;15.73;14.20;;;;;;;;;;5014321;28;20187;-78
2022/05/03 06:16:21;;;;;;;16.20;14.43;;;;;;;;;;5010943;28;20184;-76
2022/05/03 06:18:47;;;;;;;18.17;15.37;;;;;;;;;;5012162;28;20671;-79
2022/05/03 06:21:14;;;;;;;16.70;15.00;;;;;;;;;;5010383;28;20183;-78
2022/05/03 06:23:40;;;;;;;16.07;14.37;;;;;;;;;;5015822;28;20648;-78
2022/05/03 06:26:06;;;;;;;15.67;14.17;;;;;;;;;;5015014;28;20603;-78
2022/05/03 06:28:33;;;;;;;14.63;13.10;;;;;;;;;;5013253;28;20223;-78
2022/05/03 06:30:59;;;;;;;14.37;12.87;;;;;;;;;;5015058;28;20239;-79
2022/05/03 06:33:26;;;;;;;17.17;15.47;;;;;;;;;;5013990;28;20198;-78
2022/05/03 06:35:52;;;;;;;14.43;13.03;;;;;;;;;;5012664;28;20193;-81
2022/05/03 06:38:18;;;;;;;17.30;15.50;;;;;;;;;;5010789;28;20234;-78
2022/05/03 06:40:44;;;;;;;19.00;15.53;;;;;;;;;;5013033;28;20663;-78
2022/05/03 06:43:10;;;;;;;14.40;13.00;;;;;;;;;;5011017;28;20198;-79
2022/05/03 06:45:36;;;;;;;16.40;14.80;;;;;;;;;;5012449;28;20175;-79
2022/05/03 06:48:06;;;;;;;14.13;12.73;;;;;;;;;;5016685;28;20183;-79
2022/05/03 06:50:41;;;;;;;16.83;14.30;;;;;;;;;;5014232;28;20667;-78
2022/05/03 06:53:07;;;;;;;15.00;13.57;;;;;;;;;;5012688;28;21534;-78
2022/05/03 06:55:33;;;;;;;12.77;11.57;;;;;;;;;;5013433;28;20179;-79
2022/05/03 06:58:00;;;;;;;14.00;12.70;;;;;;;;;;5014643;28;20191;-78
2022/05/03 07:00:26;;;;;;;13.40;12.03;;;;;;;;;;5012929;28;20218;-78
2022/05/03 07:02:52;;;;;;;15.00;12.90;;;;;;;;;;5011637;28;20195;-79
2022/05/03 07:05:18;;;;;;;15.43;13.80;;;;;;;;;;5011546;28;20219;-79
2022/05/03 07:07:44;;;;;;;15.90;14.20;;;;;;;;;;5010948;28;20183;-78
2022/05/03 07:10:11;;;;;;;15.30;13.70;;;;;;;;;;5011211;28;20246;-78
2022/05/03 07:12:38;;;;;;;15.60;14.10;;;;;;;;;;5008991;28;20195;-78
2022/05/03 07:15:04;;;;;;;15.00;12.87;;;;;;;;;;5009218;28;20635;-78
2022/05/03 07:23:01;;;;;;;18.30;13.47;;;;;;;;;;5011579;28;20589;-78
2022/05/03 07:25:27;;;;;;;14.13;12.70;;;;;;;;;;5012369;28;20187;-78
2022/05/03 07:27:53;;;;;;;14.53;13.17;;;;;;;;;;5012544;28;21582;-78
2022/05/03 07:30:19;;;;;;;14.07;12.77;;;;;;;;;;5013113;28;20364;-78
2022/05/03 07:32:46;;;;;;;14.67;13.07;;;;;;;;;;5012502;28;20184;-78
2022/05/03 07:35:13;;;;;;;13.57;12.17;;;;;;;;;;5012295;28;20179;-78
2022/05/03 07:37:40;;;;;;;14.63;13.23;;;;;;;;;;4997900;28;20290;-78
2022/05/03 07:40:07;;;;;;;15.00;13.57;;;;;;;;;;5014148;28;20207;-78
2022/05/03 07:42:33;;;;;;;15.17;13.67;;;;;;;;;;4996356;28;20190;-79
2022/05/03 07:44:59;;;;;;;15.90;14.50;;;;;;;;;;5011989;28;20667;-78
2022/05/03 07:47:25;;;;;;;13.73;12.33;;;;;;;;;;5010041;28;20190;-79
2022/05/03 07:49:51;;;;;;;13.60;12.13;;;;;;;;;;5012962;28;20277;-78
2022/05/03 07:52:18;;;;;;;13.37;12.17;;;;;;;;;;5012998;28;20190;-78
2022/05/03 07:54:44;;;;;;;15.03;13.40;;;;;;;;;;5012867;28;20196;-78
2022/05/03 07:57:14;;;;;;;14.30;12.90;;;;;;;;;;5011766;28;20676;-78
2022/05/03 07:59:40;;;;;;;14.40;12.83;;;;;;;;;;5012052;28;20219;-78
2022/05/03 08:02:07;;;;;;;14.70;13.30;;;;;;;;;;5012062;28;20237;-78
2022/05/03 08:04:33;;;;;;;13.30;12.10;;;;;;;;;;5000430;28;20187;-78
2022/05/03 08:07:00;;;;;;;14.43;13.13;;;;;;;;;;5008585;28;20190;-78
2022/05/03 08:09:26;;;;;;;14.97;13.37;;;;;;;;;;5013388;28;20241;-78
2022/05/03 08:11:53;;;;;;;14.00;12.70;;;;;;;;;;5007666;28;20535;-78
2022/05/03 08:14:20;;;;;;;13.60;12.20;;;;;;;;;;5014759;28;20194;-78
2022/05/03 08:16:46;;;;;;;14.50;13.00;;;;;;;;;;5010016;28;20681;-78
2022/05/03 08:19:13;;;;;;;14.30;12.90;;;;;;;;;;5006725;28;20199;-78
2022/05/03 08:21:39;;;;;;;14.83;12.33;;;;;;;;;;5014372;28;20171;-78
2022/05/03 08:24:06;;;;;;;13.10;11.80;;;;;;;;;;5015432;28;20217;-79
2022/05/03 08:26:33;;;;;;;13.50;12.10;;;;;;;;;;5014727;28;20517;-79
2022/05/03 08:29:00;;;;;;;12.40;11.30;;;;;;;;;;5002483;28;20228;-79
2022/05/03 08:31:26;;;;;;;13.57;12.17;;;;;;;;;;5013801;28;20195;-78
2022/05/03 08:33:52;;;;;;;14.43;12.00;;;;;;;;;;5013620;28;20205;-79
2022/05/03 08:36:18;;;;;;;12.30;11.00;;;;;;;;;;5013750;28;20290;-78
2022/05/03 08:44:29;;;;;;;13.33;11.77;;;;;;;;;;4977200;28;20209;-78
2022/05/03 08:46:59;;;;;;;13.07;11.50;;;;;;;;;;5010351;28;20206;-78
2022/05/03 08:49:30;;;;;;;12.00;10.80;;;;;;;;;;5007629;28;20204;-78
2022/05/03 08:52:09;;;;;;;13.83;12.43;;;;;;;;;;5013950;28;20239;-78
2022/05/03 08:54:37;;;;;;;10.60;9.70;;;;;;;;;;5007218;28;20225;-79
2022/05/03 08:57:07;;;;;;;10.73;9.83;;;;;;;;;;5014607;28;20187;-79
2022/05/03 08:59:35;;;;;;;13.17;11.83;;;;;;;;;;5015583;28;20686;-79
2022/05/03 09:02:01;;;;;;;12.90;11.80;;;;;;;;;;5009136;28;20242;-79
2022/05/03 09:04:27;;;;;;;12.83;11.67;;;;;;;;;;5015664;28;20187;-79
2022/05/03 09:06:53;;;;;;;12.97;11.77;;;;;;;;;;5015569;28;20191;-79
2022/05/03 09:09:20;;;;;;;13.30;12.00;;;;;;;;;;5015302;28;20257;-79
2022/05/03 09:11:48;;;;;;;14.27;12.97;;;;;;;;;;5011046;28;20209;-79
2022/05/03 09:14:28;;;;;;;14.50;13.20;;;;;;;;;;5010806;28;20219;-79
2022/05/03 09:16:54;;;;;;;13.63;12.43;;;;;;;;;;5014137;28;20183;-79
2022/05/03 09:19:24;;;;;;;14.53;13.13;;;;;;;;;;5014435;28;20195;-79
2022/05/03 09:24:52;;;;;;;13.17;11.87;;;;;;;;;;5014618;28;20191;-79
2022/05/03 09:27:19;;;;;;;12.10;10.73;;;;;;;;;;5015316;28;20180;-79
2022/05/03 09:30:04;;;;;;;10.83;9.93;;;;;;;;;;5013824;28;20211;-79
2022/05/03 09:32:35;;;;;;;10.47;9.53;;;;;;;;;;5014739;28;20257;-79
2022/05/03 09:35:02;;;;;;;10.80;9.80;;;;;;;;;;5012298;28;20187;-79
2022/05/03 09:37:39;;;;;;;10.30;9.20;;;;;;;;;;5013125;28;20179;-79
2022/05/03 09:40:06;;;;;;;10.60;9.53;;;;;;;;;;5012155;28;20199;-80
2022/05/03 09:42:36;;;;;;;10.37;9.40;;;;;;;;;;4992084;28;20180;-80
2022/05/03 09:45:03;;;;;;;10.53;9.53;;;;;;;;;;5011293;28;20253;-80
2022/05/03 09:47:31;;;;;;;11.43;9.97;;;;;;;;;;5003152;28;20199;-80
2022/05/03 09:49:57;;;;;;;9.60;8.70;;;;;;;;;;5013923;28;20214;-80
2022/05/03 09:52:29;;;;;;;10.43;9.37;;;;;;;;;;5020173;28;20306;-80
2022/05/03 09:55:07;;;;;;;10.80;9.50;;;;;;;;;;5012869;28;20191;-80
2022/05/03 09:57:36;;;;;;;9.97;8.80;;;;;;;;;;5014172;28;20662;-79
2022/05/03 10:00:04;;;;;;;11.90;10.70;;;;;;;;;;5012693;28;20250;-79
2022/05/03 10:02:43;;;;;;;9.80;8.93;;;;;;;;;;5013900;28;20293;-79
2022/05/03 10:05:10;;;;;;;9.97;9.07;;;;;;;;;;5014281;28;20202;-79
2022/05/03 10:07:37;;;;;;;10.40;9.40;;;;;;;;;;5011779;28;20191;-79
2022/05/03 10:10:07;;;;;;;10.33;9.23;;;;;;;;;;5012370;28;20230;-80
2022/05/03 10:12:35;;;;;;;10.97;9.30;;;;;;;;;;4994752;28;20202;-80
2022/05/03 10:15:01;;;;;;;10.00;9.10;;;;;;;;;;5011217;28;20190;-78
2022/05/03 10:20:36;;;;;;;10.43;9.03;;;;;;;;;;5004225;28;20575;-79
2022/05/03 10:23:03;;;;;;;9.90;8.70;;;;;;;;;;5023088;28;20222;-79
2022/05/03 10:25:30;;;;;;;9.50;8.60;;;;;;;;;;5014170;28;20183;-78
2022/05/03 10:27:57;;;;;;;9.70;8.80;;;;;;;;;;5014209;28;20187;-79
2022/05/03 10:30:26;;;;;;;9.40;8.13;;;;;;;;;;5007108;28;20687;-79
2022/05/03 10:33:11;;;;;;;10.07;9.00;;;;;;;;;;5013618;28;20265;-77
2022/05/03 10:35:37;;;;;;;9.73;8.73;;;;;;;;;;5022591;28;20179;-78
2022/05/03 10:38:05;;;;;;;9.67;7.73;;;;;;;;;;5006824;28;20189;-78
2022/05/03 10:40:32;;;;;;;11.17;9.07;;;;;;;;;;5008987;28;20794;-78
2022/05/03 10:43:06;;;;;;;9.30;8.40;;;;;;;;;;5007977;28;20199;-78
2022/05/03 10:45:40;;;;;;;8.40;7.60;;;;;;;;;;5011102;28;21193;-78
2022/05/03 10:48:21;;;;;;;7.90;7.20;;;;;;;;;;5013438;28;20194;-78
2022/05/03 10:50:49;;;;;;;9.17;7.47;;;;;;;;;;5010738;28;20586;-78
2022/05/03 10:53:15;;;;;;;7.33;6.63;;;;;;;;;;5013534;28;20183;-78
2022/05/03 10:56:00;;;;;;;7.83;6.10;;;;;;;;;;5010855;28;20171;-79
2022/05/03 10:58:28;;;;;;;6.57;5.97;;;;;;;;;;5012761;28;20256;-79
2022/05/03 11:01:20;;;;;;;11.43;7.07;;;;;;;;;;5016621;28;20194;-79
2022/05/03 11:03:51;;;;;;;7.63;6.93;;;;;;;;;;5015675;28;20193;-79
2022/05/03 11:06:25;;;;;;;7.00;6.40;;;;;;;;;;5016018;28;20187;-79
2022/05/03 11:09:09;;;;;;;7.13;6.43;;;;;;;;;;5016739;28;20206;-79
2022/05/03 11:11:46;;;;;;;6.90;6.20;;;;;;;;;;5018949;28;20203;-79
2022/05/03 11:14:15;;;;;;;6.10;5.60;;;;;;;;;;5016632;28;20226;-79
2022/05/03 11:16:42;;;;;;;7.50;6.00;;;;;;;;;;5013460;28;20188;-79
2022/05/03 11:19:12;;;;;;;6.30;5.70;;;;;;;;;;5012282;28;20207;-79
2022/05/03 11:21:39;;;;;;;7.13;6.40;;;;;;;;;;5010854;28;20639;-79
2022/05/03 11:24:06;;;;;;;6.40;5.80;;;;;;;;;;5011939;28;20183;-79
2022/05/03 11:26:32;;;;;;;6.43;5.83;;;;;;;;;;5010999;28;20206;-82
2022/05/03 11:28:59;;;;;;;6.07;5.47;;;;;;;;;;5012906;28;20254;-79
2022/05/03 11:31:28;;;;;;;5.73;5.03;;;;;;;;;;5015675;28;20207;-80
2022/05/03 11:33:58;;;;;;;6.37;5.70;;;;;;;;;;5016162;28;20223;-79
2022/05/03 11:36:25;;;;;;;5.37;4.87;;;;;;;;;;5015471;28;20177;-80
2022/05/03 11:38:53;;;;;;;4.90;4.50;;;;;;;;;;5008036;28;20205;-80
2022/05/03 11:41:22;;;;;;;4.87;4.43;;;;;;;;;;5016248;28;20606;-80
2022/05/03 11:43:49;;;;;;;5.60;4.80;;;;;;;;;;5009797;28;20190;-80
2022/05/03 11:46:18;;;;;;;4.50;4.20;;;;;;;;;;5018056;28;20188;-80
2022/05/03 11:48:52;;;;;;;5.07;4.53;;;;;;;;;;5013787;28;20211;-81
2022/05/03 11:57:05;;;;;;;4.50;4.10;;;;;;;;;;5006968;28;20182;-80
2022/05/03 11:59:32;;;;;;;4.70;4.17;;;;;;;;;;5015600;28;22106;-80
2022/05/03 12:02:14;;;;;;;5.17;4.13;;;;;;;;;;5015512;28;20660;-80
2022/05/03 12:04:56;;;;;;;4.37;3.97;;;;;;;;;;5005881;28;20179;-80
2022/05/03 12:07:23;;;;;;;6.10;4.10;;;;;;;;;;5009189;28;20598;-80
2022/05/03 12:09:49;;;;;;;5.37;4.20;;;;;;;;;;5001985;28;20294;-80
2022/05/03 12:15:15;;;;;;;4.67;4.27;;;;;;;;;;5011080;28;20214;-80
2022/05/03 12:17:54;;;;;;;4.17;3.83;;;;;;;;;;5010119;28;20270;-80
2022/05/03 12:20:21;;;;;;;4.50;4.00;;;;;;;;;;5010494;28;20746;-80
2022/05/03 12:23:08;;;;;;;4.97;4.53;;;;;;;;;;5014899;28;20179;-80
2022/05/03 12:25:35;;;;;;;5.10;4.50;;;;;;;;;;5005722;28;20210;-80
2022/05/03 12:28:05;;;;;;;4.73;4.33;;;;;;;;;;5013712;28;20199;-80
2022/05/03 12:30:40;;;;;;;6.93;4.40;;;;;;;;;;5016176;28;20219;-80
2022/05/03 12:33:08;;;;;;;4.87;4.40;;;;;;;;;;5015329;28;20707;-80
2022/05/03 12:35:35;;;;;;;4.60;4.20;;;;;;;;;;5015345;28;20197;-80
2022/05/03 12:38:22;;;;;;;5.17;4.43;;;;;;;;;;5015922;28;20197;-80
2022/05/03 12:40:53;;;;;;;4.67;4.27;;;;;;;;;;5009410;28;20183;-81
2022/05/03 12:43:21;;;;;;;5.40;4.47;;;;;;;;;;5015934;28;20200;-80
2022/05/03 12:46:01;;;;;;;4.70;4.30;;;;;;;;;;5015731;28;20304;-81
2022/05/03 12:48:28;;;;;;;5.00;4.50;;;;;;;;;;5016040;28;20285;-80
2022/05/03 12:50:55;;;;;;;4.90;4.40;;;;;;;;;;5009819;28;20220;-81
2022/05/03 12:53:28;;;;;;;5.30;4.70;;;;;;;;;;5014888;28;20191;-80
2022/05/03 12:55:55;;;;;;;5.07;4.57;;;;;;;;;;5015573;28;20191;-80
2022/05/03 12:58:22;;;;;;;4.90;4.37;;;;;;;;;;5013737;28;20179;-80
2022/05/03 13:00:52;;;;;;;5.77;4.40;;;;;;;;;;5010659;28;20209;-81
2022/05/03 13:03:19;;;;;;;5.93;5.33;;;;;;;;;;5015717;28;20563;-80
2022/05/03 13:05:45;;;;;;;5.20;4.37;;;;;;;;;;5016988;28;20194;-80
2022/05/03 13:08:50;;;;;;;5.80;4.50;;;;;;;;;;4936716;29;20300;-80
2022/05/03 13:11:17;;;;;;;4.70;4.30;;;;;;;;;;4921059;29;20615;-80
2022/05/03 13:13:43;;;;;;;4.87;4.40;;;;;;;;;;4974997;28;20201;-81
2022/05/03 13:16:10;;;;;;;4.80;4.20;;;;;;;;;;5016930;28;20194;-81
2022/05/03 13:18:36;;;;;;;4.70;4.27;;;;;;;;;;5014369;28;20212;-80
2022/05/03 13:21:03;;;;;;;6.30;4.60;;;;;;;;;;5013829;28;20194;-81
2022/05/03 13:23:30;;;;;;;5.67;4.50;;;;;;;;;;5020362;28;20190;-81
2022/05/03 13:25:56;;;;;;;4.10;3.80;;;;;;;;;;5007634;28;20198;-81
2022/05/03 13:28:22;;;;;;;4.30;4.00;;;;;;;;;;5016195;28;20220;-81
2022/05/03 13:30:50;;;;;;;5.03;4.50;;;;;;;;;;5015952;28;20224;-81
2022/05/03 13:33:16;;;;;;;7.10;4.07;;;;;;;;;;5015305;28;20659;-82
2022/05/03 13:41:12;;;;;;;7.33;5.70;;;;;;;;;;5012977;28;20730;-81
2022/05/03 13:43:39;;;;;;;6.03;3.83;;;;;;;;;;5017217;28;20216;-81
2022/05/03 13:46:05;;;;;;;6.87;6.17;;;;;;;;;;5009970;28;20195;-81
2022/05/03 13:48:31;;;;;;;4.93;4.07;;;;;;;;;;5018672;28;20253;-80
2022/05/03 13:50:57;;;;;;;4.70;4.27;;;;;;;;;;5016367;28;20210;-81
2022/05/03 13:53:23;;;;;;;4.43;3.70;;;;;;;;;;5017703;28;20181;-81
2022/05/03 13:55:49;;;;;;;3.83;3.50;;;;;;;;;;5018536;28;20198;-80
2022/05/03 13:58:16;;;;;;;3.77;3.40;;;;;;;;;;5017736;28;20201;-80
2022/05/03 14:00:43;;;;;;;6.80;4.00;;;;;;;;;;5015542;28;20190;-80
2022/05/03 14:03:12;;;;;;;4.07;3.60;;;;;;;;;;5019199;28;20195;-80
2022/05/03 14:05:42;;;;;;;3.93;2.93;;;;;;;;;;5016727;28;20188;-81
2022/05/03 14:08:10;;;;;;;3.90;3.00;;;;;;;;;;5010609;28;20218;-80
2022/05/03 14:10:37;;;;;;;4.30;3.37;;;;;;;;;;5013061;28;20207;-81
2022/05/03 14:13:03;;;;;;;5.03;3.80;;;;;;;;;;5012133;28;20180;-80
2022/05/03 14:15:29;;;;;;;4.33;4.00;;;;;;;;;;5010099;28;20604;-81
2022/05/03 14:17:55;;;;;;;5.30;4.80;;;;;;;;;;5014269;28;20173;-81
2022/05/03 14:20:21;;;;;;;5.03;4.50;;;;;;;;;;5022029;28;20209;-81
2022/05/03 14:22:48;;;;;;;4.10;3.80;;;;;;;;;;5018200;28;20632;-80
2022/05/03 14:25:15;;;;;;;3.83;3.13;;;;;;;;;;5006786;28;20274;-80
2022/05/03 14:27:41;;;;;;;4.80;2.93;;;;;;;;;;5021587;28;20226;-81
2022/05/03 14:30:11;;;;;;;3.43;3.10;;;;;;;;;;5007310;28;20220;-79
2022/05/03 14:32:38;;;;;;;4.23;3.17;;;;;;;;;;5001704;28;20217;-82
2022/05/03 14:35:06;;;;;;;3.83;3.43;;;;;;;;;;5015188;28;20260;-78
2022/05/03 14:37:32;;;;;;;4.57;3.70;;;;;;;;;;5010137;28;20216;-77
2022/05/03 14:39:58;;;;;;;4.37;3.83;;;;;;;;;;5016462;28;20198;-78
2022/05/03 14:42:25;;;;;;;4.13;3.73;;;;;;;;;;5012605;28;20180;-78
2022/05/03 14:44:51;;;;;;;6.80;4.20;;;;;;;;;;5004984;28;20187;-78
2022/05/03 14:47:18;;;;;;;3.70;3.40;;;;;;;;;;5011347;28;20179;-78
2022/05/03 14:49:45;;;;;;;3.90;3.40;;;;;;;;;;5008483;28;20203;-77
2022/05/03 14:52:13;;;;;;;6.23;4.67;;;;;;;;;;5011976;28;20179;-77
2022/05/03 14:54:39;;;;;;;5.10;4.70;;;;;;;;;;5012289;28;20662;-78
2022/05/03 15:02:55;;;;;;;5.60;5.00;;;;;;;;;;5011837;28;20190;-79
2022/05/03 15:05:22;;;;;;;5.83;5.20;;;;;;;;;;5011593;28;20182;-79
2022/05/03 15:07:49;;;;;;;6.07;4.83;;;;;;;;;;5008437;28;20191;-79
2022/05/03 15:10:16;;;;;;;5.20;4.80;;;;;;;;;;5009625;28;20222;-77
2022/05/03 15:12:45;;;;;;;5.27;4.80;;;;;;;;;;5008705;28;20199;-79
2022/05/03 15:15:16;;;;;;;8.83;5.10;;;;;;;;;;5010470;28;20204;-77
2022/05/03 15:17:46;;;;;;;5.47;4.80;;;;;;;;;;5006947;28;20179;-78
2022/05/03 15:20:14;;;;;;;5.10;4.67;;;;;;;;;;5002899;28;20198;-78
2022/05/03 15:25:25;;;;;;;5.00;4.60;;;;;;;;;;5005762;28;20560;-77
2022/05/03 15:27:58;;;;;;;5.60;4.83;;;;;;;;;;5009949;28;20225;-78